sensor_id;sensor_type;location;lat;lon;timestamp;P1;durP1;ratioP1;P2;durP2;ratioP2
10719;SDS011;5411;58.386;15.560;2022-11-15T00:01:14;7.30;;;5.03;;
10719;SDS011;5411;58.386;15.560;2022-11-15T00:03:44;8.73;;;5.43;;
10719;SDS011;5411;58.386;15.560;2022-11-15T00:06:12;8.17;;;5.33;;
10719;SDS011;5411;58.386;15.560;2022-11-15T00:08:40;7.17;;;5.50;;
10719;SDS011;5411;58.386;15.560;2022-11-15T00:11:09;8.63;;;4.97;;
10719;SDS011;5411;58.386;15.560;2022-11-15T00:13:40;8.37;;;5.20;;
10719;SDS011;5411;58.386;15.560;2022-11-15T00:16:08;6.60;;;5.13;;
10719;SDS011;5411;58.386;15.560;2022-11-15T00:18:37;8.50;;;5.07;;
10719;SDS011;5411;58.386;15.560;2022-11-15T00:21:06;7.27;;;5.20;;
10719;SDS011;5411;58.386;15.560;2022-11-15T00:23:37;7.17;;;6.23;;
10719;SDS011;5411;58.386;15.560;2022-11-15T00:26:05;8.10;;;4.80;;
10719;SDS011;5411;58.386;15.560;2022-11-15T00:28:33;5.20;;;4.70;;
10719;SDS011;5411;58.386;15.560;2022-11-15T00:31:04;7.80;;;5.77;;
10719;SDS011;5411;58.386;15.560;2022-11-15T00:33:33;6.67;;;5.57;;
10719;SDS011;5411;58.386;15.560;2022-11-15T00:36:02;10.83;;;5.97;;
10719;SDS011;5411;58.386;15.560;2022-11-15T00:38:31;8.17;;;5.43;;
10719;SDS011;5411;58.386;15.560;2022-11-15T00:41:01;7.60;;;5.90;;
10719;SDS011;5411;58.386;15.560;2022-11-15T00:43:34;8.37;;;6.07;;
10719;SDS011;5411;58.386;15.560;2022-11-15T00:46:04;8.70;;;6.00;;
10719;SDS011;5411;58.386;15.560;2022-11-15T00:48:34;7.43;;;6.33;;
10719;SDS011;5411;58.386;15.560;2022-11-15T00:51:02;9.50;;;6.17;;
10719;SDS011;5411;58.386;15.560;2022-11-15T00:53:30;9.30;;;6.93;;
10719;SDS011;5411;58.386;15.560;2022-11-15T00:56:00;9.50;;;6.73;;
10719;SDS011;5411;58.386;15.560;2022-11-15T00:58:28;11.10;;;6.23;;
10719;SDS011;5411;58.386;15.560;2022-11-15T01:00:56;8.57;;;6.30;;
10719;SDS011;5411;58.386;15.560;2022-11-15T01:03:25;9.10;;;6.33;;
10719;SDS011;5411;58.386;15.560;2022-11-15T01:05:56;10.00;;;6.87;;
10719;SDS011;5411;58.386;15.560;2022-11-15T01:08:26;9.17;;;6.80;;
10719;SDS011;5411;58.386;15.560;2022-11-15T01:10:54;9.87;;;7.17;;
10719;SDS011;5411;58.386;15.560;2022-11-15T01:13:29;13.83;;;7.73;;
10719;SDS011;5411;58.386;15.560;2022-11-15T01:15:59;12.20;;;7.30;;
10719;SDS011;5411;58.386;15.560;2022-11-15T01:18:28;14.10;;;8.00;;
10719;SDS011;5411;58.386;15.560;2022-11-15T01:20:56;11.07;;;6.63;;
10719;SDS011;5411;58.386;15.560;2022-11-15T01:23:25;10.37;;;6.90;;
10719;SDS011;5411;58.386;15.560;2022-11-15T01:25:58;12.63;;;7.10;;
10719;SDS011;5411;58.386;15.560;2022-11-15T01:28:29;11.17;;;6.50;;
10719;SDS011;5411;58.386;15.560;2022-11-15T01:30:58;9.17;;;6.47;;
10719;SDS011;5411;58.386;15.560;2022-11-15T01:33:27;9.83;;;6.77;;
10719;SDS011;5411;58.386;15.560;2022-11-15T01:35:58;10.93;;;6.77;;
10719;SDS011;5411;58.386;15.560;2022-11-15T01:38:32;10.10;;;6.30;;
10719;SDS011;5411;58.386;15.560;2022-11-15T01:41:00;11.43;;;6.80;;
10719;SDS011;5411;58.386;15.560;2022-11-15T01:43:29;11.90;;;6.40;;
10719;SDS011;5411;58.386;15.560;2022-11-15T01:46:00;10.17;;;6.53;;
10719;SDS011;5411;58.386;15.560;2022-11-15T01:48:33;7.77;;;5.57;;
10719;SDS011;5411;58.386;15.560;2022-11-15T01:51:03;8.67;;;6.53;;
10719;SDS011;5411;58.386;15.560;2022-11-15T01:53:34;9.40;;;6.17;;
10719;SDS011;5411;58.386;15.560;2022-11-15T01:56:07;8.03;;;6.07;;
10719;SDS011;5411;58.386;15.560;2022-11-15T01:58:38;9.37;;;6.53;;
10719;SDS011;5411;58.386;15.560;2022-11-15T02:01:08;10.20;;;6.57;;
10719;SDS011;5411;58.386;15.560;2022-11-15T02:03:41;8.80;;;6.63;;
10719;SDS011;5411;58.386;15.560;2022-11-15T02:06:16;7.63;;;5.50;;
10719;SDS011;5411;58.386;15.560;2022-11-15T02:08:45;10.23;;;5.97;;
10719;SDS011;5411;58.386;15.560;2022-11-15T02:11:13;8.17;;;5.57;;
10719;SDS011;5411;58.386;15.560;2022-11-15T02:13:41;9.43;;;5.70;;
10719;SDS011;5411;58.386;15.560;2022-11-15T02:16:12;7.77;;;5.90;;
10719;SDS011;5411;58.386;15.560;2022-11-15T02:18:53;7.07;;;5.83;;
10719;SDS011;5411;58.386;15.560;2022-11-15T02:21:28;7.80;;;5.97;;
10719;SDS011;5411;58.386;15.560;2022-11-15T02:33:10;10.33;;;5.90;;
10719;SDS011;5411;58.386;15.560;2022-11-15T02:35:52;8.03;;;6.03;;
10719;SDS011;5411;58.386;15.560;2022-11-15T02:38:29;9.43;;;6.07;;
10719;SDS011;5411;58.386;15.560;2022-11-15T02:41:02;8.37;;;6.33;;
10719;SDS011;5411;58.386;15.560;2022-11-15T02:43:38;9.97;;;6.83;;
10719;SDS011;5411;58.386;15.560;2022-11-15T02:46:26;7.87;;;6.73;;
10719;SDS011;5411;58.386;15.560;2022-11-15T02:49:16;9.97;;;7.73;;
10719;SDS011;5411;58.386;15.560;2022-11-15T02:51:46;14.37;;;8.53;;
10719;SDS011;5411;58.386;15.560;2022-11-15T02:54:18;12.63;;;8.93;;
10719;SDS011;5411;58.386;15.560;2022-11-15T02:56:50;16.77;;;9.10;;
10719;SDS011;5411;58.386;15.560;2022-11-15T02:59:43;12.60;;;9.07;;
10719;SDS011;5411;58.386;15.560;2022-11-15T03:02:32;12.10;;;9.57;;
10719;SDS011;5411;58.386;15.560;2022-11-15T03:05:13;14.67;;;10.53;;
10719;SDS011;5411;58.386;15.560;2022-11-15T03:07:50;15.70;;;10.33;;
10719;SDS011;5411;58.386;15.560;2022-11-15T03:10:31;17.70;;;10.57;;
10719;SDS011;5411;58.386;15.560;2022-11-15T03:13:06;14.30;;;9.17;;
10719;SDS011;5411;58.386;15.560;2022-11-15T03:15:44;19.37;;;11.27;;
10719;SDS011;5411;58.386;15.560;2022-11-15T03:18:23;14.57;;;9.80;;
10719;SDS011;5411;58.386;15.560;2022-11-15T03:21:00;16.67;;;8.67;;
10719;SDS011;5411;58.386;15.560;2022-11-15T03:23:33;12.63;;;8.73;;
10719;SDS011;5411;58.386;15.560;2022-11-15T03:26:05;14.67;;;8.87;;
10719;SDS011;5411;58.386;15.560;2022-11-15T03:28:37;13.93;;;8.87;;
10719;SDS011;5411;58.386;15.560;2022-11-15T03:31:09;13.13;;;8.60;;
10719;SDS011;5411;58.386;15.560;2022-11-15T03:33:56;11.73;;;8.20;;
10719;SDS011;5411;58.386;15.560;2022-11-15T03:36:28;11.57;;;8.20;;
10719;SDS011;5411;58.386;15.560;2022-11-15T03:39:01;14.90;;;8.23;;
10719;SDS011;5411;58.386;15.560;2022-11-15T03:41:34;12.57;;;8.40;;
10719;SDS011;5411;58.386;15.560;2022-11-15T03:44:10;12.00;;;8.07;;
10719;SDS011;5411;58.386;15.560;2022-11-15T03:46:46;12.30;;;7.67;;
10719;SDS011;5411;58.386;15.560;2022-11-15T03:49:22;10.20;;;7.60;;
10719;SDS011;5411;58.386;15.560;2022-11-15T03:51:56;11.47;;;7.43;;
10719;SDS011;5411;58.386;15.560;2022-11-15T03:54:24;11.57;;;7.83;;
10719;SDS011;5411;58.386;15.560;2022-11-15T03:56:53;12.73;;;7.30;;
10719;SDS011;5411;58.386;15.560;2022-11-15T03:59:21;9.93;;;7.33;;
10719;SDS011;5411;58.386;15.560;2022-11-15T04:01:49;11.63;;;7.73;;
10719;SDS011;5411;58.386;15.560;2022-11-15T04:04:17;9.17;;;7.47;;
10719;SDS011;5411;58.386;15.560;2022-11-15T04:06:46;9.60;;;6.90;;
10719;SDS011;5411;58.386;15.560;2022-11-15T04:09:14;11.43;;;7.17;;
10719;SDS011;5411;58.386;15.560;2022-11-15T04:11:42;10.73;;;6.77;;
10719;SDS011;5411;58.386;15.560;2022-11-15T04:14:10;8.40;;;6.03;;
10719;SDS011;5411;58.386;15.560;2022-11-15T04:16:38;9.40;;;6.63;;
10719;SDS011;5411;58.386;15.560;2022-11-15T04:19:09;12.30;;;7.13;;
10719;SDS011;5411;58.386;15.560;2022-11-15T04:21:57;8.83;;;6.27;;
10719;SDS011;5411;58.386;15.560;2022-11-15T04:24:43;9.73;;;6.17;;
10719;SDS011;5411;58.386;15.560;2022-11-15T04:27:12;10.47;;;6.40;;
10719;SDS011;5411;58.386;15.560;2022-11-15T04:29:40;8.97;;;6.20;;
10719;SDS011;5411;58.386;15.560;2022-11-15T04:32:08;8.93;;;5.77;;
10719;SDS011;5411;58.386;15.560;2022-11-15T04:34:37;9.57;;;6.33;;
10719;SDS011;5411;58.386;15.560;2022-11-15T04:37:07;10.20;;;6.83;;
10719;SDS011;5411;58.386;15.560;2022-11-15T04:39:40;8.43;;;6.47;;
10719;SDS011;5411;58.386;15.560;2022-11-15T04:42:08;9.10;;;6.33;;
10719;SDS011;5411;58.386;15.560;2022-11-15T04:44:37;11.23;;;6.37;;
10719;SDS011;5411;58.386;15.560;2022-11-15T04:47:05;8.37;;;6.00;;
10719;SDS011;5411;58.386;15.560;2022-11-15T04:49:33;9.30;;;6.43;;
10719;SDS011;5411;58.386;15.560;2022-11-15T04:52:01;8.50;;;5.73;;
10719;SDS011;5411;58.386;15.560;2022-11-15T04:54:30;7.60;;;6.23;;
10719;SDS011;5411;58.386;15.560;2022-11-15T04:56:59;8.57;;;6.37;;
10719;SDS011;5411;58.386;15.560;2022-11-15T04:59:27;7.83;;;6.03;;
10719;SDS011;5411;58.386;15.560;2022-11-15T05:01:59;11.10;;;6.53;;
10719;SDS011;5411;58.386;15.560;2022-11-15T05:04:29;8.87;;;5.67;;
10719;SDS011;5411;58.386;15.560;2022-11-15T05:06:56;8.30;;;5.60;;
10719;SDS011;5411;58.386;15.560;2022-11-15T05:09:24;8.00;;;5.77;;
10719;SDS011;5411;58.386;15.560;2022-11-15T05:11:54;9.70;;;5.90;;
10719;SDS011;5411;58.386;15.560;2022-11-15T05:14:22;10.60;;;5.80;;
10719;SDS011;5411;58.386;15.560;2022-11-15T05:16:50;8.87;;;5.97;;
10719;SDS011;5411;58.386;15.560;2022-11-15T05:19:18;6.70;;;5.50;;
10719;SDS011;5411;58.386;15.560;2022-11-15T05:21:46;9.00;;;5.40;;
10719;SDS011;5411;58.386;15.560;2022-11-15T05:24:15;8.07;;;5.57;;
10719;SDS011;5411;58.386;15.560;2022-11-15T05:26:43;7.77;;;5.57;;
10719;SDS011;5411;58.386;15.560;2022-11-15T05:29:13;7.93;;;5.23;;
10719;SDS011;5411;58.386;15.560;2022-11-15T05:31:41;8.70;;;5.67;;
10719;SDS011;5411;58.386;15.560;2022-11-15T05:34:09;8.37;;;5.63;;
10719;SDS011;5411;58.386;15.560;2022-11-15T05:36:41;7.30;;;4.97;;
10719;SDS011;5411;58.386;15.560;2022-11-15T05:39:11;5.50;;;4.53;;
10719;SDS011;5411;58.386;15.560;2022-11-15T05:41:39;7.43;;;4.43;;
10719;SDS011;5411;58.386;15.560;2022-11-15T05:44:13;6.83;;;5.00;;
10719;SDS011;5411;58.386;15.560;2022-11-15T05:46:45;7.03;;;3.90;;
10719;SDS011;5411;58.386;15.560;2022-11-15T05:49:15;5.60;;;3.50;;
10719;SDS011;5411;58.386;15.560;2022-11-15T05:51:47;5.20;;;3.80;;
10719;SDS011;5411;58.386;15.560;2022-11-15T05:54:16;7.87;;;4.00;;
10719;SDS011;5411;58.386;15.560;2022-11-15T05:56:47;5.73;;;3.40;;
10719;SDS011;5411;58.386;15.560;2022-11-15T05:59:17;4.53;;;3.30;;
10719;SDS011;5411;58.386;15.560;2022-11-15T06:01:46;4.27;;;3.00;;
10719;SDS011;5411;58.386;15.560;2022-11-15T06:04:14;4.17;;;3.33;;
10719;SDS011;5411;58.386;15.560;2022-11-15T06:06:42;4.33;;;3.00;;
10719;SDS011;5411;58.386;15.560;2022-11-15T06:09:10;3.57;;;2.80;;
10719;SDS011;5411;58.386;15.560;2022-11-15T06:11:38;4.00;;;2.90;;
10719;SDS011;5411;58.386;15.560;2022-11-15T06:14:06;4.47;;;3.40;;
10719;SDS011;5411;58.386;15.560;2022-11-15T06:16:35;5.43;;;3.07;;
10719;SDS011;5411;58.386;15.560;2022-11-15T06:19:05;4.63;;;2.93;;
10719;SDS011;5411;58.386;15.560;2022-11-15T06:21:33;3.17;;;2.73;;
10719;SDS011;5411;58.386;15.560;2022-11-15T06:24:01;3.20;;;2.90;;
10719;SDS011;5411;58.386;15.560;2022-11-15T06:26:30;3.20;;;2.80;;
10719;SDS011;5411;58.386;15.560;2022-11-15T06:28:58;3.00;;;2.50;;
10719;SDS011;5411;58.386;15.560;2022-11-15T06:31:26;4.93;;;3.10;;
10719;SDS011;5411;58.386;15.560;2022-11-15T06:33:56;3.13;;;2.83;;
10719;SDS011;5411;58.386;15.560;2022-11-15T06:36:25;4.93;;;2.27;;
10719;SDS011;5411;58.386;15.560;2022-11-15T06:38:53;3.03;;;2.60;;
10719;SDS011;5411;58.386;15.560;2022-11-15T06:41:22;2.87;;;2.40;;
10719;SDS011;5411;58.386;15.560;2022-11-15T06:43:50;4.27;;;2.50;;
10719;SDS011;5411;58.386;15.560;2022-11-15T06:46:18;4.73;;;2.63;;
10719;SDS011;5411;58.386;15.560;2022-11-15T06:48:46;2.70;;;2.50;;
10719;SDS011;5411;58.386;15.560;2022-11-15T06:51:16;3.17;;;2.53;;
10719;SDS011;5411;58.386;15.560;2022-11-15T06:53:45;4.17;;;2.07;;
10719;SDS011;5411;58.386;15.560;2022-11-15T06:56:13;2.40;;;2.20;;
10719;SDS011;5411;58.386;15.560;2022-11-15T06:58:41;4.03;;;2.20;;
10719;SDS011;5411;58.386;15.560;2022-11-15T07:01:10;2.67;;;1.87;;
10719;SDS011;5411;58.386;15.560;2022-11-15T07:03:40;1.80;;;1.70;;
10719;SDS011;5411;58.386;15.560;2022-11-15T07:06:09;1.70;;;1.60;;
10719;SDS011;5411;58.386;15.560;2022-11-15T07:08:38;2.50;;;1.67;;
10719;SDS011;5411;58.386;15.560;2022-11-15T07:11:08;1.50;;;1.40;;
10719;SDS011;5411;58.386;15.560;2022-11-15T07:13:37;2.70;;;1.60;;
10719;SDS011;5411;58.386;15.560;2022-11-15T07:16:05;1.90;;;1.80;;
10719;SDS011;5411;58.386;15.560;2022-11-15T07:18:36;2.53;;;1.40;;
10719;SDS011;5411;58.386;15.560;2022-11-15T07:21:05;1.70;;;1.60;;
10719;SDS011;5411;58.386;15.560;2022-11-15T07:23:35;1.47;;;1.37;;
10719;SDS011;5411;58.386;15.560;2022-11-15T07:26:06;1.83;;;1.73;;
10719;SDS011;5411;58.386;15.560;2022-11-15T07:28:35;2.73;;;1.77;;
10719;SDS011;5411;58.386;15.560;2022-11-15T07:31:03;3.77;;;2.00;;
10719;SDS011;5411;58.386;15.560;2022-11-15T07:33:32;4.07;;;1.60;;
10719;SDS011;5411;58.386;15.560;2022-11-15T07:36:02;2.37;;;1.80;;
10719;SDS011;5411;58.386;15.560;2022-11-15T07:38:33;1.83;;;1.73;;
10719;SDS011;5411;58.386;15.560;2022-11-15T07:41:09;2.10;;;1.90;;
10719;SDS011;5411;58.386;15.560;2022-11-15T07:43:37;1.57;;;1.47;;
10719;SDS011;5411;58.386;15.560;2022-11-15T07:46:06;2.30;;;2.10;;
10719;SDS011;5411;58.386;15.560;2022-11-15T07:48:36;3.80;;;1.37;;
10719;SDS011;5411;58.386;15.560;2022-11-15T07:51:10;1.10;;;1.10;;
10719;SDS011;5411;58.386;15.560;2022-11-15T07:53:40;1.70;;;1.10;;
10719;SDS011;5411;58.386;15.560;2022-11-15T07:56:10;2.00;;;1.60;;
10719;SDS011;5411;58.386;15.560;2022-11-15T07:58:38;1.20;;;1.10;;
10719;SDS011;5411;58.386;15.560;2022-11-15T08:01:07;1.20;;;1.10;;
10719;SDS011;5411;58.386;15.560;2022-11-15T08:03:36;1.20;;;1.10;;
10719;SDS011;5411;58.386;15.560;2022-11-15T08:06:05;1.87;;;1.10;;
10719;SDS011;5411;58.386;15.560;2022-11-15T08:08:33;1.40;;;1.20;;
10719;SDS011;5411;58.386;15.560;2022-11-15T08:11:01;1.43;;;1.30;;
10719;SDS011;5411;58.386;15.560;2022-11-15T08:13:30;1.00;;;1.00;;
10719;SDS011;5411;58.386;15.560;2022-11-15T08:15:59;0.80;;;0.80;;
10719;SDS011;5411;58.386;15.560;2022-11-15T08:18:28;1.27;;;1.00;;
10719;SDS011;5411;58.386;15.560;2022-11-15T08:20:58;1.00;;;0.90;;
10719;SDS011;5411;58.386;15.560;2022-11-15T08:23:27;0.90;;;0.90;;
10719;SDS011;5411;58.386;15.560;2022-11-15T08:25:59;1.27;;;1.00;;
10719;SDS011;5411;58.386;15.560;2022-11-15T08:28:28;1.30;;;1.20;;
10719;SDS011;5411;58.386;15.560;2022-11-15T08:30:58;1.00;;;1.00;;
10719;SDS011;5411;58.386;15.560;2022-11-15T08:33:27;1.67;;;1.33;;
10719;SDS011;5411;58.386;15.560;2022-11-15T08:35:57;1.53;;;1.17;;
10719;SDS011;5411;58.386;15.560;2022-11-15T08:38:26;0.97;;;0.97;;
10719;SDS011;5411;58.386;15.560;2022-11-15T08:41:00;1.40;;;1.30;;
10719;SDS011;5411;58.386;15.560;2022-11-15T08:43:33;2.43;;;1.20;;
10719;SDS011;5411;58.386;15.560;2022-11-15T08:46:01;1.47;;;1.10;;
10719;SDS011;5411;58.386;15.560;2022-11-15T08:48:30;1.97;;;1.10;;
10719;SDS011;5411;58.386;15.560;2022-11-15T08:50:58;1.30;;;1.20;;
10719;SDS011;5411;58.386;15.560;2022-11-15T08:53:26;3.30;;;1.20;;
10719;SDS011;5411;58.386;15.560;2022-11-15T08:55:54;1.10;;;1.03;;
10719;SDS011;5411;58.386;15.560;2022-11-15T08:58:22;1.37;;;1.27;;
10719;SDS011;5411;58.386;15.560;2022-11-15T09:00:52;2.90;;;1.47;;
10719;SDS011;5411;58.386;15.560;2022-11-15T09:03:20;2.70;;;1.80;;
10719;SDS011;5411;58.386;15.560;2022-11-15T09:05:48;4.07;;;1.77;;
10719;SDS011;5411;58.386;15.560;2022-11-15T09:08:16;2.40;;;1.57;;
10719;SDS011;5411;58.386;15.560;2022-11-15T09:11:04;2.37;;;1.50;;
10719;SDS011;5411;58.386;15.560;2022-11-15T09:13:33;1.87;;;1.40;;
10719;SDS011;5411;58.386;15.560;2022-11-15T09:16:05;1.50;;;1.40;;
10719;SDS011;5411;58.386;15.560;2022-11-15T09:18:33;1.67;;;1.57;;
10719;SDS011;5411;58.386;15.560;2022-11-15T09:21:02;3.73;;;1.47;;
10719;SDS011;5411;58.386;15.560;2022-11-15T09:23:30;2.90;;;1.37;;
10719;SDS011;5411;58.386;15.560;2022-11-15T09:25:59;1.37;;;1.23;;
10719;SDS011;5411;58.386;15.560;2022-11-15T09:28:29;3.37;;;1.47;;
10719;SDS011;5411;58.386;15.560;2022-11-15T09:30:58;1.27;;;1.17;;
10719;SDS011;5411;58.386;15.560;2022-11-15T09:33:29;2.03;;;1.37;;
10719;SDS011;5411;58.386;15.560;2022-11-15T09:35:59;2.57;;;1.60;;
10719;SDS011;5411;58.386;15.560;2022-11-15T09:38:29;1.60;;;1.50;;
10719;SDS011;5411;58.386;15.560;2022-11-15T09:44:12;2.27;;;2.07;;
10719;SDS011;5411;58.386;15.560;2022-11-15T09:46:55;2.43;;;1.17;;
10719;SDS011;5411;58.386;15.560;2022-11-15T09:49:35;1.17;;;1.17;;
10719;SDS011;5411;58.386;15.560;2022-11-15T09:52:03;1.57;;;1.13;;
10719;SDS011;5411;58.386;15.560;2022-11-15T09:54:33;1.43;;;1.30;;
10719;SDS011;5411;58.386;15.560;2022-11-15T09:57:20;1.90;;;1.33;;
10719;SDS011;5411;58.386;15.560;2022-11-15T09:59:55;1.90;;;1.70;;
10719;SDS011;5411;58.386;15.560;2022-11-15T10:02:55;1.50;;;1.40;;
10719;SDS011;5411;58.386;15.560;2022-11-15T10:05:34;1.20;;;1.10;;
10719;SDS011;5411;58.386;15.560;2022-11-15T10:08:16;1.40;;;1.30;;
10719;SDS011;5411;58.386;15.560;2022-11-15T10:10:55;2.93;;;1.30;;
10719;SDS011;5411;58.386;15.560;2022-11-15T10:13:45;2.13;;;1.20;;
10719;SDS011;5411;58.386;15.560;2022-11-15T10:16:28;4.43;;;2.00;;
10719;SDS011;5411;58.386;15.560;2022-11-15T10:19:13;3.07;;;1.77;;
10719;SDS011;5411;58.386;15.560;2022-11-15T10:21:56;2.07;;;1.53;;
10719;SDS011;5411;58.386;15.560;2022-11-15T10:24:33;1.53;;;1.30;;
10719;SDS011;5411;58.386;15.560;2022-11-15T10:27:06;1.70;;;1.60;;
10719;SDS011;5411;58.386;15.560;2022-11-15T10:29:42;1.87;;;1.40;;
10719;SDS011;5411;58.386;15.560;2022-11-15T10:32:12;1.60;;;1.50;;
10719;SDS011;5411;58.386;15.560;2022-11-15T10:34:42;2.10;;;1.90;;
10719;SDS011;5411;58.386;15.560;2022-11-15T10:37:12;2.07;;;1.40;;
10719;SDS011;5411;58.386;15.560;2022-11-15T10:39:40;2.90;;;1.13;;
10719;SDS011;5411;58.386;15.560;2022-11-15T10:42:16;1.47;;;1.40;;
10719;SDS011;5411;58.386;15.560;2022-11-15T10:44:46;3.07;;;1.50;;
10719;SDS011;5411;58.386;15.560;2022-11-15T10:47:21;3.77;;;1.73;;
10719;SDS011;5411;58.386;15.560;2022-11-15T10:49:56;6.33;;;1.30;;
10719;SDS011;5411;58.386;15.560;2022-11-15T10:52:30;3.50;;;1.93;;
10719;SDS011;5411;58.386;15.560;2022-11-15T10:55:02;1.57;;;1.40;;
10719;SDS011;5411;58.386;15.560;2022-11-15T10:57:35;1.60;;;1.20;;
10719;SDS011;5411;58.386;15.560;2022-11-15T11:00:06;1.20;;;1.10;;
10719;SDS011;5411;58.386;15.560;2022-11-15T11:02:56;2.00;;;1.30;;
10719;SDS011;5411;58.386;15.560;2022-11-15T11:05:28;2.57;;;1.23;;
10719;SDS011;5411;58.386;15.560;2022-11-15T11:08:20;1.20;;;1.20;;
10719;SDS011;5411;58.386;15.560;2022-11-15T11:10:53;1.30;;;1.20;;
10719;SDS011;5411;58.386;15.560;2022-11-15T11:13:29;2.87;;;1.43;;
10719;SDS011;5411;58.386;15.560;2022-11-15T11:15:59;1.90;;;1.13;;
10719;SDS011;5411;58.386;15.560;2022-11-15T11:18:56;5.53;;;1.40;;
10719;SDS011;5411;58.386;15.560;2022-11-15T11:21:32;1.97;;;1.10;;
10719;SDS011;5411;58.386;15.560;2022-11-15T11:24:11;2.97;;;1.50;;
10719;SDS011;5411;58.386;15.560;2022-11-15T11:26:55;3.33;;;1.47;;
10719;SDS011;5411;58.386;15.560;2022-11-15T11:29:43;2.90;;;1.10;;
10719;SDS011;5411;58.386;15.560;2022-11-15T11:32:26;2.30;;;1.10;;
10719;SDS011;5411;58.386;15.560;2022-11-15T11:35:05;1.60;;;1.50;;
10719;SDS011;5411;58.386;15.560;2022-11-15T11:37:41;1.17;;;1.07;;
10719;SDS011;5411;58.386;15.560;2022-11-15T11:40:22;1.70;;;0.90;;
10719;SDS011;5411;58.386;15.560;2022-11-15T11:42:58;1.90;;;1.10;;
10719;SDS011;5411;58.386;15.560;2022-11-15T11:48:33;3.33;;;0.90;;
10719;SDS011;5411;58.386;15.560;2022-11-15T11:51:11;1.00;;;1.00;;
10719;SDS011;5411;58.386;15.560;2022-11-15T11:53:46;1.00;;;0.90;;
10719;SDS011;5411;58.386;15.560;2022-11-15T11:56:25;1.53;;;1.17;;
10719;SDS011;5411;58.386;15.560;2022-11-15T11:58:57;1.13;;;1.03;;
10719;SDS011;5411;58.386;15.560;2022-11-15T12:01:31;2.63;;;0.97;;
10719;SDS011;5411;58.386;15.560;2022-11-15T12:04:04;2.00;;;1.47;;
10719;SDS011;5411;58.386;15.560;2022-11-15T12:06:47;0.77;;;0.77;;
10719;SDS011;5411;58.386;15.560;2022-11-15T12:09:21;1.33;;;1.00;;
10719;SDS011;5411;58.386;15.560;2022-11-15T12:11:58;1.13;;;1.00;;
10719;SDS011;5411;58.386;15.560;2022-11-15T12:14:35;1.93;;;1.00;;
10719;SDS011;5411;58.386;15.560;2022-11-15T12:17:09;1.40;;;1.10;;
10719;SDS011;5411;58.386;15.560;2022-11-15T12:19:38;1.00;;;1.00;;
10719;SDS011;5411;58.386;15.560;2022-11-15T12:22:12;4.40;;;1.17;;
10719;SDS011;5411;58.386;15.560;2022-11-15T12:24:48;1.83;;;1.10;;
10719;SDS011;5411;58.386;15.560;2022-11-15T12:27:25;3.07;;;1.10;;
10719;SDS011;5411;58.386;15.560;2022-11-15T12:29:58;2.63;;;1.27;;
10719;SDS011;5411;58.386;15.560;2022-11-15T12:32:30;1.13;;;1.00;;
10719;SDS011;5411;58.386;15.560;2022-11-15T12:35:03;1.53;;;1.40;;
10719;SDS011;5411;58.386;15.560;2022-11-15T12:37:44;1.43;;;0.93;;
10719;SDS011;5411;58.386;15.560;2022-11-15T12:46:10;1.10;;;1.10;;
10719;SDS011;5411;58.386;15.560;2022-11-15T12:48:51;2.30;;;1.10;;
10719;SDS011;5411;58.386;15.560;2022-11-15T12:51:21;0.87;;;0.83;;
10719;SDS011;5411;58.386;15.560;2022-11-15T12:57:29;2.10;;;1.10;;
10719;SDS011;5411;58.386;15.560;2022-11-15T13:00:05;1.90;;;1.20;;
10719;SDS011;5411;58.386;15.560;2022-11-15T13:03:16;2.67;;;0.90;;
10719;SDS011;5411;58.386;15.560;2022-11-15T13:05:55;1.57;;;1.43;;
10719;SDS011;5411;58.386;15.560;2022-11-15T13:08:43;1.43;;;0.90;;
10719;SDS011;5411;58.386;15.560;2022-11-15T13:17:27;2.73;;;1.10;;
10719;SDS011;5411;58.386;15.560;2022-11-15T13:20:20;1.10;;;1.00;;
10719;SDS011;5411;58.386;15.560;2022-11-15T13:22:59;0.87;;;0.87;;
10719;SDS011;5411;58.386;15.560;2022-11-15T13:28:31;1.23;;;0.90;;
10719;SDS011;5411;58.386;15.560;2022-11-15T13:31:02;2.07;;;1.00;;
10719;SDS011;5411;58.386;15.560;2022-11-15T13:33:48;3.53;;;1.30;;
10719;SDS011;5411;58.386;15.560;2022-11-15T13:36:19;1.20;;;1.10;;
10719;SDS011;5411;58.386;15.560;2022-11-15T13:38:54;2.40;;;1.30;;
10719;SDS011;5411;58.386;15.560;2022-11-15T13:41:25;1.77;;;1.00;;
10719;SDS011;5411;58.386;15.560;2022-11-15T13:43:56;1.53;;;1.10;;
10719;SDS011;5411;58.386;15.560;2022-11-15T13:46:25;1.17;;;1.00;;
10719;SDS011;5411;58.386;15.560;2022-11-15T13:48:58;1.20;;;1.10;;
10719;SDS011;5411;58.386;15.560;2022-11-15T13:51:30;2.33;;;1.10;;
10719;SDS011;5411;58.386;15.560;2022-11-15T13:54:09;2.43;;;1.10;;
10719;SDS011;5411;58.386;15.560;2022-11-15T13:56:46;1.70;;;0.97;;
10719;SDS011;5411;58.386;15.560;2022-11-15T13:59:18;2.07;;;1.00;;
10719;SDS011;5411;58.386;15.560;2022-11-15T14:01:51;2.73;;;1.30;;
10719;SDS011;5411;58.386;15.560;2022-11-15T14:04:22;2.13;;;1.50;;
10719;SDS011;5411;58.386;15.560;2022-11-15T14:06:55;2.70;;;1.27;;
10719;SDS011;5411;58.386;15.560;2022-11-15T14:09:33;4.13;;;1.23;;
10719;SDS011;5411;58.386;15.560;2022-11-15T14:14:54;1.73;;;1.47;;
10719;SDS011;5411;58.386;15.560;2022-11-15T14:17:32;8.17;;;1.10;;
10719;SDS011;5411;58.386;15.560;2022-11-15T14:20:18;2.30;;;1.10;;
10719;SDS011;5411;58.386;15.560;2022-11-15T14:22:51;1.27;;;1.03;;
10719;SDS011;5411;58.386;15.560;2022-11-15T14:25:20;1.60;;;0.93;;
10719;SDS011;5411;58.386;15.560;2022-11-15T14:28:12;3.23;;;1.27;;
10719;SDS011;5411;58.386;15.560;2022-11-15T14:30:44;3.10;;;1.03;;
10719;SDS011;5411;58.386;15.560;2022-11-15T14:33:20;1.37;;;0.80;;
10719;SDS011;5411;58.386;15.560;2022-11-15T14:35:54;1.00;;;1.00;;
10719;SDS011;5411;58.386;15.560;2022-11-15T14:38:23;4.33;;;1.00;;
10719;SDS011;5411;58.386;15.560;2022-11-15T14:40:52;1.47;;;1.13;;
10719;SDS011;5411;58.386;15.560;2022-11-15T14:43:22;2.90;;;1.37;;
10719;SDS011;5411;58.386;15.560;2022-11-15T14:45:50;1.47;;;1.00;;
10719;SDS011;5411;58.386;15.560;2022-11-15T14:48:18;2.77;;;1.00;;
10719;SDS011;5411;58.386;15.560;2022-11-15T14:50:46;1.80;;;1.70;;
10719;SDS011;5411;58.386;15.560;2022-11-15T14:53:16;1.50;;;1.00;;
10719;SDS011;5411;58.386;15.560;2022-11-15T14:55:46;1.60;;;1.20;;
10719;SDS011;5411;58.386;15.560;2022-11-15T14:58:15;4.07;;;1.20;;
10719;SDS011;5411;58.386;15.560;2022-11-15T15:00:43;1.63;;;0.93;;
10719;SDS011;5411;58.386;15.560;2022-11-15T15:03:11;2.97;;;0.87;;
10719;SDS011;5411;58.386;15.560;2022-11-15T15:05:39;4.27;;;0.93;;
10719;SDS011;5411;58.386;15.560;2022-11-15T15:08:11;1.30;;;0.93;;
10719;SDS011;5411;58.386;15.560;2022-11-15T15:10:43;1.20;;;1.10;;
10719;SDS011;5411;58.386;15.560;2022-11-15T15:13:14;1.37;;;1.10;;
10719;SDS011;5411;58.386;15.560;2022-11-15T15:15:45;3.67;;;1.00;;
10719;SDS011;5411;58.386;15.560;2022-11-15T15:18:13;1.00;;;0.97;;
10719;SDS011;5411;58.386;15.560;2022-11-15T15:20:42;2.43;;;1.33;;
10719;SDS011;5411;58.386;15.560;2022-11-15T15:23:15;0.80;;;0.80;;
10719;SDS011;5411;58.386;15.560;2022-11-15T15:25:46;2.37;;;1.80;;
10719;SDS011;5411;58.386;15.560;2022-11-15T15:28:15;1.40;;;0.90;;
10719;SDS011;5411;58.386;15.560;2022-11-15T15:30:43;1.97;;;1.63;;
10719;SDS011;5411;58.386;15.560;2022-11-15T15:33:11;1.60;;;1.20;;
10719;SDS011;5411;58.386;15.560;2022-11-15T15:35:40;1.50;;;1.40;;
10719;SDS011;5411;58.386;15.560;2022-11-15T15:38:08;2.03;;;1.10;;
10719;SDS011;5411;58.386;15.560;2022-11-15T15:40:39;1.83;;;0.90;;
10719;SDS011;5411;58.386;15.560;2022-11-15T15:43:08;1.13;;;1.03;;
10719;SDS011;5411;58.386;15.560;2022-11-15T15:45:37;1.77;;;1.17;;
10719;SDS011;5411;58.386;15.560;2022-11-15T15:48:07;1.57;;;1.47;;
10719;SDS011;5411;58.386;15.560;2022-11-15T15:50:38;2.00;;;1.40;;
10719;SDS011;5411;58.386;15.560;2022-11-15T15:53:07;4.03;;;1.30;;